Time;durP1;ratioP1;P1;durP2;ratioP2;P2;SDS_P1;SDS_P2;PMS_P1;PMS_P2;Temp;Humidity;BMP_temperature;BMP_pressure;BME280_temperature;BME280_humidity;BME280_pressure;Samples;Min_cycle;Max_cycle;Signal;HPM_P1;HPM_P2
2022/01/24 00:01:11;;;;;;;9.33;4.00;;;0.70;99.90;;;;;;4954986;28;20437;-75
2022/01/24 00:03:36;;;;;;;6.27;4.30;;;0.70;99.90;;;;;;4955037;28;20208;-74
2022/01/24 00:06:03;;;;;;;6.23;4.13;;;0.60;99.90;;;;;;4955192;29;20446;-74
2022/01/24 00:08:30;;;;;;;7.63;4.80;;;0.60;99.90;;;;;;4955348;28;20245;-75
2022/01/24 00:11:02;;;;;;;6.43;4.90;;;0.60;99.90;;;;;;4954706;28;20394;-75
2022/01/24 00:14:19;;;;;;;6.80;4.30;;;0.50;99.90;;;;;;4954611;28;21004;-74
2022/01/24 00:27:14;;;;;;;11.03;4.90;;;0.30;99.90;;;;;;4913103;29;20882;-75
2022/01/24 00:29:40;;;;;;;5.93;4.57;;;0.30;99.90;;;;;;4912634;29;20471;-75
2022/01/24 00:32:06;;;;;;;9.77;4.80;;;0.20;99.90;;;;;;4931432;28;20761;-75
2022/01/24 00:34:32;;;;;;;4.80;4.10;;;0.20;99.90;;;;;;4952786;29;20232;-75
2022/01/24 00:36:58;;;;;;;6.60;3.83;;;0.20;99.90;;;;;;4953354;28;20505;-74
2022/01/24 00:39:23;;;;;;;6.67;4.57;;;0.20;99.90;;;;;;4954410;29;20499;-74
2022/01/24 00:42:17;;;;;;;12.03;4.13;;;0.10;99.90;;;;;;4954425;28;20213;-75
2022/01/24 00:44:51;;;;;;;6.37;4.70;;;0.10;99.90;;;;;;4954129;28;20180;-74
2022/01/24 00:49:56;;;;;;;9.10;5.57;;;-0.10;99.90;;;;;;4954242;29;20421;-75
2022/01/24 00:55:06;;;;;;;8.27;5.17;;;-0.20;99.90;;;;;;4954467;29;20370;-74
2022/01/24 00:57:32;;;;;;;7.63;4.33;;;-0.20;99.90;;;;;;4954126;28;20914;-75
2022/01/24 00:59:57;;;;;;;7.70;5.30;;;-0.20;99.90;;;;;;4955109;28;20463;-74
2022/01/24 05:31:40;;;;;;;14.20;8.90;;;-1.70;99.90;;;;;;5646520;23;20518;-72
2022/01/24 05:34:05;;;;;;;17.87;9.67;;;-1.70;99.90;;;;;;4946361;29;20449;-74
2022/01/24 05:36:31;;;;;;;11.67;8.27;;;-1.70;99.90;;;;;;4939022;28;20388;-75
2022/01/24 05:38:57;;;;;;;18.70;9.40;;;-1.70;99.90;;;;;;4934416;29;20533;-74
2022/01/24 05:41:23;;;;;;;16.73;8.90;;;-1.70;99.90;;;;;;4933156;29;20208;-75
2022/01/24 05:43:48;;;;;;;15.30;8.50;;;-1.70;99.90;;;;;;4933967;29;20423;-75
2022/01/24 05:46:14;;;;;;;12.20;8.20;;;-1.70;99.90;;;;;;4934227;29;20187;-75
2022/01/24 05:48:39;;;;;;;15.57;8.10;;;-1.70;99.90;;;;;;4934371;29;20239;-75
2022/01/24 05:51:05;;;;;;;14.97;10.40;;;-1.70;99.90;;;;;;4938161;29;20254;-75
2022/01/24 05:53:30;;;;;;;16.60;9.30;;;-1.70;99.90;;;;;;4937842;29;20681;-74
2022/01/24 05:55:56;;;;;;;16.97;10.00;;;-1.70;99.90;;;;;;4938200;29;20188;-74
2022/01/24 05:58:21;;;;;;;14.90;9.10;;;-1.70;99.90;;;;;;4938107;29;20179;-74
2022/01/24 06:00:47;;;;;;;14.37;9.93;;;-1.70;99.90;;;;;;4937973;29;20187;-74
2022/01/24 06:03:12;;;;;;;16.47;9.60;;;-1.70;99.90;;;;;;4937792;29;20270;-72
2022/01/24 06:05:38;;;;;;;18.13;7.93;;;-1.70;99.90;;;;;;4937902;29;20215;-73
2022/01/24 06:08:04;;;;;;;16.77;9.40;;;-1.70;99.90;;;;;;4937786;29;20523;-73
2022/01/24 06:10:29;;;;;;;16.83;9.93;;;-1.60;99.90;;;;;;4937567;29;20184;-73
2022/01/24 06:12:55;;;;;;;12.90;8.60;;;-1.60;99.90;;;;;;4938281;29;20466;-73
2022/01/24 06:15:21;;;;;;;13.73;8.80;;;-1.50;99.90;;;;;;4938765;29;20202;-72
2022/01/24 06:17:46;;;;;;;15.60;8.80;;;-1.50;99.90;;;;;;4938821;29;20184;-74
2022/01/24 06:20:12;;;;;;;14.43;7.73;;;-1.50;99.90;;;;;;4937670;29;20183;-72
2022/01/24 06:22:41;;;;;;;18.17;9.13;;;-1.50;99.90;;;;;;4938366;29;20281;-73
2022/01/24 06:25:08;;;;;;;11.80;8.40;;;-1.40;99.90;;;;;;4937968;29;20256;-73
2022/01/24 06:27:33;;;;;;;12.37;8.67;;;-1.40;99.90;;;;;;4938114;29;20472;-73
2022/01/24 06:29:59;;;;;;;12.33;8.73;;;-1.40;99.90;;;;;;4936641;29;20388;-74
2022/01/24 06:32:25;;;;;;;15.57;8.60;;;-1.40;99.90;;;;;;4937167;29;20234;-73
2022/01/24 06:34:50;;;;;;;14.80;8.40;;;-1.30;99.90;;;;;;4937188;29;20582;-73
2022/01/24 06:37:16;;;;;;;12.90;8.67;;;-1.20;99.90;;;;;;4937283;29;20180;-74
2022/01/24 06:39:41;;;;;;;10.80;8.47;;;-1.20;99.90;;;;;;4937626;29;20272;-73
2022/01/24 06:42:21;;;;;;;16.30;8.67;;;-1.30;99.90;;;;;;4937151;29;20205;-73
2022/01/24 06:44:47;;;;;;;18.67;8.53;;;-1.30;99.90;;;;;;4937042;29;20178;-73
2022/01/24 06:47:13;;;;;;;15.30;9.37;;;-1.20;99.90;;;;;;4937057;29;20390;-73
2022/01/24 06:49:38;;;;;;;17.37;8.53;;;-1.20;99.90;;;;;;4937131;29;20937;-73
2022/01/24 06:52:06;;;;;;;18.23;8.27;;;-1.20;99.90;;;;;;4936846;29;20201;-73
2022/01/24 06:54:33;;;;;;;18.10;9.30;;;-1.10;99.90;;;;;;4936842;29;20260;-73
2022/01/24 06:56:59;;;;;;;19.60;9.50;;;-1.10;99.90;;;;;;4937296;29;20934;-73
2022/01/24 06:59:24;;;;;;;22.60;8.90;;;-1.10;99.90;;;;;;4937065;29;20476;-73
2022/01/24 07:01:50;;;;;;;16.53;9.97;;;-1.00;99.90;;;;;;4936026;29;20197;-73
2022/01/24 07:04:15;;;;;;;20.73;11.00;;;-0.90;99.90;;;;;;4936470;29;20255;-73
2022/01/24 07:06:41;;;;;;;17.17;9.63;;;-0.90;99.90;;;;;;4936916;29;20185;-73
2022/01/24 07:09:06;;;;;;;15.30;8.77;;;-0.90;99.90;;;;;;4936778;29;20181;-73
2022/01/24 07:11:32;;;;;;;18.50;8.60;;;-0.80;99.90;;;;;;4936859;29;20232;-74
2022/01/24 07:13:57;;;;;;;20.70;10.03;;;-0.80;99.90;;;;;;4936412;29;20223;-73
2022/01/24 07:16:27;;;;;;;25.87;9.97;;;-0.70;99.90;;;;;;4936522;29;20608;-73
2022/01/24 07:18:59;;;;;;;22.57;10.50;;;-0.70;99.90;;;;;;4936595;29;20170;-73
2022/01/24 07:21:25;;;;;;;20.50;10.20;;;-0.70;99.90;;;;;;4936438;29;20541;-73
2022/01/24 07:23:51;;;;;;;21.27;9.93;;;-0.60;99.90;;;;;;4936334;29;20484;-73
2022/01/24 07:26:17;;;;;;;17.83;9.00;;;-0.50;99.90;;;;;;4936384;29;20400;-73
2022/01/24 07:28:44;;;;;;;23.10;11.07;;;-0.50;99.90;;;;;;4936414;29;20464;-71
2022/01/24 07:31:10;;;;;;;23.13;9.40;;;-0.40;99.90;;;;;;4936092;29;20209;-72
2022/01/24 07:33:35;;;;;;;17.17;8.93;;;-0.30;99.90;;;;;;4935988;29;20465;-71
2022/01/24 07:36:01;;;;;;;14.80;9.37;;;-0.30;99.90;;;;;;4936227;29;20855;-72
2022/01/24 07:38:27;;;;;;;16.00;9.67;;;-0.20;99.90;;;;;;4936244;29;20169;-72
2022/01/24 07:40:54;;;;;;;21.80;10.50;;;-0.20;99.90;;;;;;4936183;29;20201;-71
2022/01/24 07:43:20;;;;;;;14.33;9.20;;;-0.10;99.90;;;;;;4935836;29;20184;-71
2022/01/24 07:45:47;;;;;;;22.70;10.17;;;-0.10;99.90;;;;;;4936052;29;20399;-71
2022/01/24 07:48:14;;;;;;;13.60;9.23;;;0.00;99.90;;;;;;4936062;29;20565;-71
2022/01/24 07:50:43;;;;;;;16.37;9.40;;;0.00;99.90;;;;;;4934873;29;20987;-70
2022/01/24 07:53:10;;;;;;;12.93;8.73;;;0.10;99.90;;;;;;4933165;29;20452;-71
2022/01/24 07:55:36;;;;;;;16.35;10.20;;;0.10;99.90;;;;;;4935080;29;20508;-73
2022/01/24 07:58:02;;;;;;;14.57;10.13;;;0.20;99.90;;;;;;4935619;29;20225;-73
2022/01/24 08:00:28;;;;;;;19.47;10.47;;;0.30;99.90;;;;;;4935832;29;20421;-73
2022/01/24 08:02:54;;;;;;;16.40;9.30;;;0.30;99.90;;;;;;4935329;29;20489;-74
2022/01/24 08:05:20;;;;;;;15.80;9.57;;;0.40;99.90;;;;;;4935836;29;20404;-75
2022/01/24 08:07:45;;;;;;;12.43;8.70;;;0.40;99.90;;;;;;4936837;29;20193;-75
2022/01/24 08:10:11;;;;;;;17.73;9.50;;;0.50;99.90;;;;;;4936262;29;20778;-75
2022/01/24 08:12:38;;;;;;;15.20;8.87;;;0.60;99.90;;;;;;4935733;29;20221;-73
2022/01/24 08:15:06;;;;;;;15.33;10.00;;;0.60;99.90;;;;;;4935351;29;20229;-73
2022/01/24 08:17:32;;;;;;;19.73;9.07;;;0.70;99.90;;;;;;4935664;29;20460;-73
2022/01/24 08:19:58;;;;;;;19.77;11.37;;;0.80;99.90;;;;;;4935494;29;20448;-74
2022/01/24 08:22:24;;;;;;;18.73;11.80;;;0.90;99.90;;;;;;4935275;29;20197;-74
2022/01/24 08:24:51;;;;;;;16.60;11.03;;;0.90;99.90;;;;;;4934884;29;20433;-73
2022/01/24 08:27:18;;;;;;;17.13;10.73;;;1.00;99.90;;;;;;4935323;29;20803;-73
2022/01/24 08:29:49;;;;;;;24.73;11.27;;;1.10;99.90;;;;;;4935263;29;20508;-72
2022/01/24 08:32:15;;;;;;;18.10;11.27;;;1.10;99.90;;;;;;4934797;29;20496;-73
2022/01/24 08:34:40;;;;;;;39.63;10.67;;;1.20;99.90;;;;;;4934660;29;20469;-72
2022/01/24 08:37:06;;;;;;;19.37;11.50;;;1.30;99.90;;;;;;4935323;29;20423;-74
2022/01/24 08:39:32;;;;;;;17.90;9.70;;;1.30;99.90;;;;;;4934764;29;20192;-73
2022/01/24 08:42:12;;;;;;;18.53;11.87;;;1.40;99.90;;;;;;4934896;29;20583;-73
2022/01/24 08:47:04;;;;;;;17.00;10.50;;;1.60;99.90;;;;;;4934939;29;20425;-73
2022/01/24 08:49:30;;;;;;;23.87;11.33;;;1.60;99.90;;;;;;4934734;29;20183;-73
2022/01/24 08:51:55;;;;;;;18.27;11.93;;;1.70;99.90;;;;;;4934598;29;20423;-74
2022/01/24 08:54:21;;;;;;;25.27;12.20;;;1.80;99.90;;;;;;4933434;29;20218;-74
2022/01/24 08:56:47;;;;;;;24.07;12.23;;;1.90;99.90;;;;;;4935074;29;20193;-74
2022/01/24 08:59:13;;;;;;;17.90;12.03;;;2.00;99.90;;;;;;4934636;29;20554;-74
2022/01/24 09:01:38;;;;;;;20.17;12.07;;;2.10;99.90;;;;;;4934554;29;20484;-74
2022/01/24 09:04:05;;;;;;;24.90;12.33;;;2.20;99.90;;;;;;4934036;29;20917;-72
2022/01/24 09:06:30;;;;;;;24.70;11.87;;;2.20;99.90;;;;;;4934686;29;20243;-74
2022/01/24 09:09:01;;;;;;;26.07;13.43;;;2.30;99.90;;;;;;4934535;29;20934;-74
2022/01/24 09:11:32;;;;;;;23.90;12.80;;;2.40;99.90;;;;;;4934474;29;20651;-74
2022/01/24 09:13:58;;;;;;;22.10;12.77;;;2.60;99.90;;;;;;4933644;29;20440;-73
2022/01/24 09:16:24;;;;;;;24.93;15.50;;;2.80;99.90;;;;;;4934246;29;20418;-72
2022/01/24 09:18:50;;;;;;;22.43;14.33;;;3.10;99.90;;;;;;4934456;29;20405;-74
2022/01/24 09:21:16;;;;;;;20.20;12.77;;;3.40;99.90;;;;;;4934105;29;20201;-74
2022/01/24 09:23:42;;;;;;;26.77;14.17;;;3.70;99.90;;;;;;4933376;29;20840;-73
2022/01/24 09:26:07;;;;;;;21.47;13.17;;;4.20;99.90;;;;;;4933961;29;20426;-74
2022/01/24 09:28:33;;;;;;;16.23;11.03;;;4.80;99.90;;;;;;4934258;29;20216;-74
2022/01/24 09:30:58;;;;;;;12.60;10.53;;;5.40;99.90;;;;;;4933814;29;20292;-73
2022/01/24 09:33:25;;;;;;;22.27;11.63;;;6.00;99.90;;;;;;4933653;29;20210;-73
2022/01/24 09:35:52;;;;;;;16.93;11.87;;;6.40;99.90;;;;;;4934173;29;20274;-73
2022/01/24 09:38:20;;;;;;;18.00;12.03;;;6.70;99.90;;;;;;4934151;29;20552;-73
2022/01/24 09:40:46;;;;;;;14.40;11.00;;;7.00;99.90;;;;;;4934208;29;20427;-72
2022/01/24 09:43:11;;;;;;;16.07;11.67;;;7.10;99.90;;;;;;4933531;29;20421;-73
2022/01/24 09:45:37;;;;;;;16.80;10.03;;;7.40;99.90;;;;;;4933988;29;20186;-71
2022/01/24 09:48:03;;;;;;;18.57;11.97;;;7.70;99.90;;;;;;4933966;29;20193;-72
2022/01/24 09:50:29;;;;;;;15.27;10.40;;;7.70;99.90;;;;;;4933839;29;20189;-71
2022/01/24 09:52:55;;;;;;;16.57;12.00;;;7.80;99.90;;;;;;4931311;29;20473;-72
2022/01/24 09:55:22;;;;;;;15.00;10.87;;;7.90;99.90;;;;;;4933792;29;20420;-73
2022/01/24 09:57:49;;;;;;;18.47;9.77;;;8.10;99.90;;;;;;4934184;29;20680;-74
2022/01/24 10:00:22;;;;;;;17.57;11.33;;;8.30;99.90;;;;;;4933856;29;20932;-74
2022/01/24 10:02:50;;;;;;;17.43;10.30;;;8.40;99.90;;;;;;4933279;29;20448;-72
2022/01/24 10:05:26;;;;;;;17.90;12.00;;;8.50;99.90;;;;;;4932859;29;20504;-73
2022/01/24 10:07:55;;;;;;;18.33;11.80;;;8.60;99.90;;;;;;4934240;29;20432;-74
2022/01/24 10:10:49;;;;;;;19.93;12.37;;;8.30;99.90;;;;;;4934327;29;20421;-75
2022/01/24 10:16:30;;;;;;;13.50;11.10;;;8.60;99.90;;;;;;4934711;29;20831;-74
2022/01/24 10:19:14;;;;;;;17.43;11.80;;;8.50;99.90;;;;;;4933915;29;20415;-72
2022/01/24 10:21:46;;;;;;;19.90;13.20;;;8.90;99.90;;;;;;4933612;29;20462;-72
2022/01/24 10:24:28;;;;;;;12.37;9.60;;;8.80;99.90;;;;;;4933594;29;20424;-71
2022/01/24 10:27:18;;;;;;;13.87;9.50;;;8.80;99.90;;;;;;4933546;29;20807;-72
2022/01/24 10:30:07;;;;;;;10.77;8.83;;;8.90;99.90;;;;;;4933451;29;20442;-71
2022/01/24 10:33:05;;;;;;;14.80;10.50;;;9.00;99.90;;;;;;4933160;29;20466;-71
2022/01/24 10:35:45;;;;;;;14.70;10.37;;;8.90;99.90;;;;;;4912005;29;20483;-72
2022/01/24 10:38:15;;;;;;;11.07;8.50;;;8.90;99.90;;;;;;4937473;29;20431;-72
2022/01/24 10:43:24;;;;;;;14.97;9.67;;;8.90;99.90;;;;;;4936791;29;20423;-72
2022/01/24 10:45:52;;;;;;;10.43;8.47;;;9.10;99.90;;;;;;4936723;29;20819;-71
2022/01/24 10:48:30;;;;;;;12.30;8.93;;;9.10;99.90;;;;;;4936939;29;20426;-72
2022/01/24 10:51:03;;;;;;;10.87;9.23;;;9.10;99.90;;;;;;4936502;29;20430;-72
2022/01/24 10:53:35;;;;;;;10.53;8.17;;;9.00;99.90;;;;;;4936428;29;20508;-72
2022/01/24 10:56:00;;;;;;;12.77;9.90;;;9.20;99.90;;;;;;4936825;29;20898;-72
2022/01/24 10:58:34;;;;;;;11.60;8.50;;;9.30;99.90;;;;;;4937051;29;20472;-73
2022/01/24 11:00:59;;;;;;;10.57;8.00;;;9.30;99.90;;;;;;4936896;29;20678;-73
2022/01/24 11:03:25;;;;;;;9.13;8.23;;;9.10;99.90;;;;;;4936552;29;20428;-72
2022/01/24 11:05:50;;;;;;;9.90;8.23;;;9.10;99.90;;;;;;4936521;29;20541;-73
2022/01/24 11:08:17;;;;;;;9.50;7.80;;;9.20;99.90;;;;;;4937037;29;20202;-73
2022/01/24 11:10:48;;;;;;;17.37;9.07;;;9.50;99.90;;;;;;4937891;29;20193;-74
2022/01/24 11:13:18;;;;;;;11.60;8.67;;;9.50;99.90;;;;;;4937003;29;21009;-73
2022/01/24 11:15:48;;;;;;;8.13;7.33;;;9.60;99.90;;;;;;4936388;29;20416;-73
2022/01/24 11:18:15;;;;;;;9.60;8.23;;;9.50;99.90;;;;;;4936862;29;20418;-73
2022/01/24 11:20:46;;;;;;;15.57;8.20;;;9.50;99.90;;;;;;4936312;29;20911;-73
2022/01/24 11:23:12;;;;;;;9.27;7.27;;;9.40;99.90;;;;;;4936097;29;20749;-72
2022/01/24 11:25:43;;;;;;;8.20;7.30;;;9.50;99.90;;;;;;4936231;29;20435;-72
2022/01/24 11:28:10;;;;;;;8.63;7.43;;;9.40;99.90;;;;;;4936462;29;20833;-72
2022/01/24 11:30:49;;;;;;;9.10;8.10;;;9.20;99.90;;;;;;4936078;29;20479;-71
2022/01/24 11:33:22;;;;;;;10.40;8.03;;;9.10;99.90;;;;;;4935955;29;20566;-72
2022/01/24 11:35:53;;;;;;;9.37;7.20;;;8.80;99.90;;;;;;4945370;29;21031;-72
2022/01/24 11:38:35;;;;;;;11.13;7.90;;;8.70;99.90;;;;;;4954326;29;20435;-74
2022/01/24 11:41:06;;;;;;;9.23;8.27;;;8.70;99.90;;;;;;4955318;28;20400;-73
2022/01/24 11:43:40;;;;;;;18.17;9.23;;;8.60;99.90;;;;;;4954661;28;20429;-70
2022/01/24 11:46:31;;;;;;;10.77;8.10;;;8.80;99.90;;;;;;4955255;28;20424;-73
2022/01/24 11:49:09;;;;;;;9.90;8.03;;;8.80;99.90;;;;;;4954692;28;20508;-73
2022/01/24 11:51:37;;;;;;;9.93;7.40;;;8.80;99.90;;;;;;4955002;28;20469;-73
2022/01/24 11:54:04;;;;;;;14.40;9.00;;;8.90;99.90;;;;;;4954581;28;20497;-71
2022/01/24 11:56:32;;;;;;;10.87;8.20;;;8.80;99.90;;;;;;4954429;28;20444;-73
2022/01/24 11:59:20;;;;;;;9.13;7.90;;;8.80;99.90;;;;;;4954852;28;20500;-73
2022/01/24 12:01:52;;;;;;;11.77;8.50;;;8.90;99.90;;;;;;4954901;28;20449;-73
2022/01/24 12:04:57;;;;;;;10.00;8.10;;;8.70;99.90;;;;;;4954587;28;20416;-73
2022/01/24 12:07:26;;;;;;;8.87;7.77;;;8.70;99.90;;;;;;4954537;29;20430;-73
2022/01/24 12:09:53;;;;;;;14.63;7.57;;;8.60;99.90;;;;;;4954575;28;20411;-73
2022/01/24 12:12:50;;;;;;;8.23;6.67;;;8.50;99.90;;;;;;4954774;28;20443;-72
2022/01/24 12:15:41;;;;;;;8.87;7.30;;;8.60;99.90;;;;;;4954745;28;20427;-72
2022/01/24 12:18:18;;;;;;;8.03;6.23;;;8.60;99.90;;;;;;4954668;28;20402;-73
2022/01/24 12:20:45;;;;;;;6.83;6.07;;;8.80;99.90;;;;;;4954438;28;20403;-72
2022/01/24 12:23:16;;;;;;;7.57;6.17;;;8.60;99.90;;;;;;4954656;28;20418;-72
2022/01/24 12:25:49;;;;;;;6.13;5.53;;;8.60;99.90;;;;;;4954356;28;20412;-72
2022/01/24 12:28:21;;;;;;;7.17;6.13;;;8.50;99.90;;;;;;4954405;28;20413;-72
2022/01/24 12:31:10;;;;;;;8.40;6.20;;;8.30;99.90;;;;;;4952736;29;20421;-73
2022/01/24 12:33:39;;;;;;;6.73;6.13;;;8.40;99.90;;;;;;4953776;28;20441;-72
2022/01/24 12:36:09;;;;;;;7.90;5.43;;;8.30;99.90;;;;;;4954443;28;20949;-71
2022/01/24 12:38:47;;;;;;;5.70;5.10;;;8.20;99.90;;;;;;4954076;28;20411;-73
2022/01/24 12:41:37;;;;;;;7.67;5.43;;;8.30;99.90;;;;;;4954375;28;20805;-73
2022/01/24 12:46:32;;;;;;;6.37;5.40;;;8.40;99.90;;;;;;4954060;28;20451;-71
2022/01/24 12:49:00;;;;;;;5.90;4.60;;;8.40;99.90;;;;;;4953331;28;20419;-72
2022/01/24 12:51:29;;;;;;;5.33;4.53;;;8.40;99.90;;;;;;4953825;28;20986;-73
2022/01/24 12:53:56;;;;;;;5.50;5.00;;;8.30;99.90;;;;;;4953549;28;20906;-73
2022/01/24 12:56:30;;;;;;;9.00;5.60;;;8.40;99.90;;;;;;4954461;28;20424;-72
2022/01/24 12:58:57;;;;;;;7.83;5.00;;;8.30;99.90;;;;;;4952819;28;20856;-72
2022/01/24 13:01:37;;;;;;;9.30;6.07;;;8.40;99.90;;;;;;4953785;28;20435;-73
2022/01/24 13:04:10;;;;;;;7.13;5.20;;;8.20;99.90;;;;;;4953325;28;20417;-73
2022/01/24 13:06:38;;;;;;;4.73;4.23;;;7.80;99.90;;;;;;4953812;28;20418;-73
2022/01/24 13:09:24;;;;;;;4.70;4.17;;;7.70;99.90;;;;;;4953653;28;21012;-73
2022/01/24 13:11:53;;;;;;;5.70;4.83;;;7.70;99.90;;;;;;4953225;28;20449;-73
2022/01/24 13:14:26;;;;;;;5.07;4.57;;;7.60;99.90;;;;;;4953227;28;20992;-73
2022/01/24 13:22:40;;;;;;;8.57;4.60;;;7.70;99.90;;;;;;4953187;29;20488;-72
2022/01/24 13:25:30;;;;;;;6.23;4.53;;;7.70;99.90;;;;;;4952196;29;20439;-73
2022/01/24 13:28:19;;;;;;;7.80;4.33;;;7.70;99.90;;;;;;4941256;28;20427;-73
2022/01/24 13:30:46;;;;;;;5.20;4.60;;;7.80;99.90;;;;;;4933651;29;20780;-72
2022/01/24 13:33:24;;;;;;;7.57;4.47;;;7.70;99.90;;;;;;4933633;29;20839;-72
2022/01/24 13:35:55;;;;;;;4.37;3.97;;;7.70;99.90;;;;;;4933757;29;20414;-73
2022/01/24 13:38:42;;;;;;;5.70;4.40;;;7.70;99.90;;;;;;4934135;29;20419;-72
2022/01/24 13:41:12;;;;;;;4.60;4.20;;;7.70;99.90;;;;;;4933959;29;20439;-72
2022/01/24 13:43:47;;;;;;;5.03;4.00;;;7.70;99.90;;;;;;4933424;29;20567;-72
2022/01/24 13:46:20;;;;;;;4.20;3.80;;;7.60;99.90;;;;;;4932979;29;20420;-72
2022/01/24 13:48:47;;;;;;;3.93;3.53;;;7.70;99.90;;;;;;4933820;29;20421;-73
2022/01/24 13:51:22;;;;;;;7.57;3.70;;;7.70;99.90;;;;;;4933741;29;20899;-72
2022/01/24 13:53:51;;;;;;;4.97;3.93;;;7.60;99.90;;;;;;4933302;29;20453;-72
2022/01/24 13:56:43;;;;;;;6.50;4.10;;;7.40;99.90;;;;;;4937029;29;20432;-72
2022/01/24 13:59:17;;;;;;;4.87;3.87;;;7.40;99.90;;;;;;4939456;28;20484;-72
2022/01/24 14:01:58;;;;;;;6.47;4.20;;;7.50;99.90;;;;;;4942296;29;20401;-72
2022/01/24 14:04:37;;;;;;;13.13;4.10;;;7.50;99.90;;;;;;4941098;29;20466;-72
2022/01/24 14:07:29;;;;;;;4.10;3.70;;;7.50;99.90;;;;;;4933938;29;20413;-73
2022/01/24 14:09:55;;;;;;;4.33;3.93;;;7.60;99.90;;;;;;4933595;29;20414;-72
2022/01/24 14:12:25;;;;;;;5.00;4.53;;;7.60;99.90;;;;;;4937473;29;21016;-72
2022/01/24 14:15:12;;;;;;;5.03;3.70;;;7.50;99.90;;;;;;4937422;29;20229;-72
2022/01/24 14:20:20;;;;;;;7.85;3.95;;;7.50;99.90;;;;;;4937229;29;20429;-72
2022/01/24 14:22:47;;;;;;;5.03;3.50;;;7.50;99.90;;;;;;4937007;29;20646;-72
2022/01/24 14:25:20;;;;;;;5.03;4.00;;;7.50;99.90;;;;;;4937496;29;20409;-72
2022/01/24 14:27:55;;;;;;;5.93;4.13;;;7.40;99.90;;;;;;4937406;29;20891;-71
2022/01/24 14:30:38;;;;;;;6.03;4.57;;;7.50;99.90;;;;;;4937516;29;20410;-72
2022/01/24 14:33:05;;;;;;;6.95;4.03;;;7.40;99.90;;;;;;4936430;29;20439;-73
2022/01/24 14:35:37;;;;;;;8.90;3.90;;;7.40;99.90;;;;;;4937422;29;20531;-73
2022/01/24 14:38:04;;;;;;;6.03;4.13;;;7.30;99.90;;;;;;4937627;29;20929;-74
2022/01/24 14:40:47;;;;;;;4.47;4.07;;;7.30;99.90;;;;;;4937161;29;20410;-72
2022/01/24 14:46:08;;;;;;;8.23;4.40;;;7.10;99.90;;;;;;4937594;29;20484;-73
2022/01/24 14:48:46;;;;;;;3.63;3.33;;;7.20;99.90;;;;;;4936092;29;20422;-74
2022/01/24 14:51:12;;;;;;;4.53;3.93;;;7.20;99.90;;;;;;4936870;29;20433;-73
2022/01/24 14:53:37;;;;;;;6.70;4.33;;;7.20;99.90;;;;;;4936589;29;20903;-73
2022/01/24 14:56:04;;;;;;;4.40;3.07;;;7.10;99.90;;;;;;4937470;29;20205;-73
2022/01/24 14:58:29;;;;;;;7.63;5.53;;;7.10;99.90;;;;;;4938048;29;20265;-73
2022/01/24 15:00:55;;;;;;;5.03;4.10;;;7.10;99.90;;;;;;4937670;29;20991;-72
2022/01/24 15:03:20;;;;;;;4.90;3.83;;;7.10;99.90;;;;;;4936851;29;20690;-74
2022/01/24 15:05:46;;;;;;;3.73;3.40;;;7.00;99.90;;;;;;4937097;29;20190;-73
2022/01/24 15:08:12;;;;;;;5.10;3.73;;;7.00;99.90;;;;;;4937090;29;20187;-74
2022/01/24 15:10:38;;;;;;;4.37;3.70;;;7.00;99.90;;;;;;4936300;29;20182;-71
2022/01/24 15:13:06;;;;;;;4.43;4.00;;;7.00;99.90;;;;;;4936142;29;20493;-72
2022/01/24 15:15:36;;;;;;;4.10;3.77;;;7.00;99.90;;;;;;4936616;29;20418;-72
2022/01/24 15:26:04;;;;;;;8.37;3.67;;;6.70;99.90;;;;;;4936787;29;20465;-73
2022/01/24 15:28:31;;;;;;;4.80;3.63;;;6.80;99.90;;;;;;4936344;29;20443;-73
2022/01/24 15:30:56;;;;;;;3.43;3.13;;;6.70;99.90;;;;;;4935888;29;20470;-72
2022/01/24 15:33:22;;;;;;;8.07;3.90;;;6.70;99.90;;;;;;4935711;29;20501;-72
2022/01/24 15:35:49;;;;;;;14.23;8.07;;;6.60;99.90;;;;;;4936148;29;20197;-73
2022/01/24 15:38:14;;;;;;;9.80;5.73;;;6.60;99.90;;;;;;4936293;29;20257;-73
2022/01/24 15:40:40;;;;;;;4.73;3.53;;;6.50;99.90;;;;;;4935554;29;20797;-72
2022/01/24 15:43:14;;;;;;;7.73;3.70;;;6.50;99.90;;;;;;4935639;29;20236;-72
2022/01/24 15:45:57;;;;;;;5.00;3.37;;;6.40;99.90;;;;;;4936016;29;20437;-73
2022/01/24 15:48:22;;;;;;;3.97;3.30;;;6.30;99.90;;;;;;4936207;29;20425;-73
2022/01/24 15:50:48;;;;;;;9.43;4.13;;;6.20;99.90;;;;;;4935269;29;20430;-73
2022/01/24 15:53:13;;;;;;;6.80;3.97;;;6.10;99.90;;;;;;4935525;29;20205;-73
2022/01/24 15:55:50;;;;;;;6.13;4.00;;;6.00;99.90;;;;;;4935712;29;20218;-73
2022/01/24 15:58:15;;;;;;;5.17;4.07;;;5.90;99.90;;;;;;4935881;29;20275;-73
2022/01/24 16:00:42;;;;;;;12.23;5.50;;;5.80;99.90;;;;;;4935507;29;20982;-72
2022/01/24 16:03:10;;;;;;;11.40;4.90;;;5.70;99.90;;;;;;4935236;29;20182;-72
2022/01/24 16:05:38;;;;;;;6.80;4.30;;;5.50;99.90;;;;;;4935608;29;20494;-73
2022/01/24 16:08:05;;;;;;;8.10;4.53;;;5.40;99.90;;;;;;4935708;29;20425;-73
2022/01/24 16:10:33;;;;;;;13.73;4.90;;;5.30;99.90;;;;;;4935437;29;20511;-73
2022/01/24 16:13:01;;;;;;;10.83;4.83;;;5.10;99.90;;;;;;4934868;29;20449;-72
2022/01/24 16:15:28;;;;;;;12.97;4.40;;;4.90;99.90;;;;;;4935633;29;20424;-72
2022/01/24 16:17:55;;;;;;;4.33;3.87;;;4.80;99.90;;;;;;4935464;29;20441;-71
2022/01/24 16:25:34;;;;;;;17.53;5.73;;;4.50;99.90;;;;;;4936160;29;20435;-73
2022/01/24 16:28:02;;;;;;;9.27;5.77;;;4.40;99.90;;;;;;4935464;29;20397;-73
2022/01/24 16:30:29;;;;;;;5.97;5.40;;;4.20;99.90;;;;;;4935160;29;20412;-71
2022/01/24 16:32:59;;;;;;;9.03;5.37;;;4.20;99.90;;;;;;4934308;29;20439;-72
2022/01/24 16:35:25;;;;;;;9.67;5.23;;;4.10;99.90;;;;;;4935362;29;21003;-73
2022/01/24 16:37:52;;;;;;;8.23;4.73;;;4.00;99.90;;;;;;4935675;29;20425;-73
2022/01/24 16:40:27;;;;;;;6.23;3.43;;;3.90;99.90;;;;;;4935367;29;20450;-74
2022/01/24 16:43:10;;;;;;;3.80;3.20;;;3.70;99.90;;;;;;4934554;29;20448;-74
2022/01/24 16:48:20;;;;;;;5.80;3.00;;;3.60;99.90;;;;;;4935717;29;20411;-74
2022/01/24 16:50:46;;;;;;;6.67;3.00;;;3.50;99.90;;;;;;4934662;29;20435;-74
2022/01/24 16:53:17;;;;;;;6.77;3.27;;;3.30;99.90;;;;;;4934546;29;20627;-74
2022/01/24 16:55:43;;;;;;;6.83;4.57;;;3.20;99.90;;;;;;4934174;29;20797;-74
2022/01/24 16:58:10;;;;;;;5.03;4.33;;;3.10;99.90;;;;;;4935809;29;20446;-74
2022/01/24 17:00:36;;;;;;;6.17;4.80;;;3.00;99.90;;;;;;4935768;29;20428;-74
2022/01/24 17:03:02;;;;;;;10.67;6.87;;;3.00;99.90;;;;;;4935030;29;20413;-74
2022/01/24 17:05:28;;;;;;;12.23;6.47;;;2.90;99.90;;;;;;4935240;29;20884;-73
2022/01/24 17:07:53;;;;;;;9.07;5.90;;;2.80;99.90;;;;;;4934935;29;20426;-74
2022/01/24 17:10:19;;;;;;;6.33;4.93;;;2.80;99.90;;;;;;4934784;29;20206;-74
2022/01/24 17:12:47;;;;;;;10.17;4.43;;;2.70;99.90;;;;;;4934444;29;20223;-73
2022/01/24 17:15:14;;;;;;;6.10;3.37;;;2.60;99.90;;;;;;4935529;29;20420;-74
2022/01/24 17:17:40;;;;;;;6.53;4.87;;;2.60;99.90;;;;;;4951916;29;20765;-75
2022/01/24 17:20:08;;;;;;;13.00;4.13;;;2.50;99.90;;;;;;4953776;28;20423;-74
2022/01/24 17:22:34;;;;;;;6.60;3.90;;;2.50;99.90;;;;;;4953339;28;20209;-75
2022/01/24 17:25:00;;;;;;;9.70;4.70;;;2.40;99.90;;;;;;4953858;28;20426;-74
2022/01/24 17:27:27;;;;;;;8.13;3.93;;;2.30;99.90;;;;;;4954017;28;20415;-74
2022/01/24 17:29:53;;;;;;;21.47;4.30;;;2.30;99.90;;;;;;4954042;28;20408;-74
2022/01/24 17:32:19;;;;;;;8.40;4.70;;;2.20;99.90;;;;;;4953552;29;20966;-73
2022/01/24 17:34:44;;;;;;;7.77;4.53;;;2.10;99.90;;;;;;4953557;28;20478;-74
2022/01/24 17:37:10;;;;;;;5.50;5.00;;;2.10;99.90;;;;;;4953523;28;20421;-74
2022/01/24 17:39:38;;;;;;;11.20;3.93;;;2.00;99.90;;;;;;4953417;28;20179;-74
2022/01/24 17:42:05;;;;;;;4.10;3.57;;;2.00;99.90;;;;;;4953577;28;20471;-73
2022/01/24 17:44:30;;;;;;;10.50;4.73;;;2.00;99.90;;;;;;4953612;28;20453;-72
2022/01/24 17:46:56;;;;;;;5.00;3.23;;;1.90;99.90;;;;;;4951970;29;20431;-73
2022/01/24 17:49:22;;;;;;;5.20;3.80;;;1.80;99.90;;;;;;4953816;28;20394;-73
2022/01/24 17:51:48;;;;;;;4.47;4.10;;;1.80;99.90;;;;;;4952940;28;20442;-73
2022/01/24 17:54:13;;;;;;;11.67;4.13;;;1.80;99.90;;;;;;4952006;28;20643;-74
2022/01/24 17:56:42;;;;;;;12.83;4.30;;;1.70;99.90;;;;;;4953983;28;20211;-74
2022/01/24 17:59:07;;;;;;;5.43;3.10;;;1.60;99.90;;;;;;4954230;28;20171;-73
2022/01/24 18:01:33;;;;;;;6.80;4.40;;;1.60;99.90;;;;;;4953182;28;20414;-75
2022/01/24 18:03:59;;;;;;;5.93;5.43;;;1.60;99.90;;;;;;4952786;28;20188;-74
2022/01/24 18:06:28;;;;;;;9.70;5.37;;;1.60;99.90;;;;;;4953649;28;20195;-74
2022/01/24 18:08:54;;;;;;;13.53;4.90;;;1.50;99.90;;;;;;4953671;28;20753;-74
2022/01/24 18:11:20;;;;;;;9.17;4.97;;;1.40;99.90;;;;;;4953332;28;20428;-74
2022/01/24 18:13:46;;;;;;;8.90;5.40;;;1.40;99.90;;;;;;4952590;28;20477;-75
2022/01/24 18:16:12;;;;;;;7.40;5.43;;;1.30;99.90;;;;;;4953665;29;20219;-74
2022/01/24 18:18:37;;;;;;;11.37;4.50;;;1.30;99.90;;;;;;4953090;28;20259;-74
2022/01/24 18:21:04;;;;;;;8.13;5.27;;;1.30;99.90;;;;;;4950865;28;20437;-73
2022/01/24 18:23:32;;;;;;;5.83;5.00;;;1.20;99.90;;;;;;4952481;28;20557;-73